Time;durP1;ratioP1;P1;durP2;ratioP2;P2;SDS_P1;SDS_P2;PMS_P1;PMS_P2;Temp;Humidity;BMP_temperature;BMP_pressure;BME280_temperature;BME280_humidity;BME280_pressure;Samples;Min_cycle;Max_cycle;Signal;HPM_P1;HPM_P2
2022/06/07 00:02:07;;;;;;;25.03;23.37;;;19.40;70.30;;;;;;5030302;28;21065;-72
2022/06/07 00:04:38;;;;;;;25.10;23.70;;;19.40;70.60;;;;;;5035252;28;20555;-69
2022/06/07 00:07:05;;;;;;;25.33;23.90;;;19.40;70.20;;;;;;5039053;28;20476;-69
2022/06/07 00:09:32;;;;;;;25.13;23.80;;;19.30;70.60;;;;;;5034112;28;20550;-69
2022/06/07 00:12:00;;;;;;;25.43;24.00;;;19.30;70.30;;;;;;5032290;28;20488;-69
2022/06/07 00:14:27;;;;;;;25.50;24.10;;;19.40;70.10;;;;;;5035361;28;20471;-69
2022/06/07 00:16:55;;;;;;;25.27;23.97;;;19.40;69.90;;;;;;5031370;28;21233;-69
2022/06/07 00:19:22;;;;;;;25.00;23.70;;;19.40;70.00;;;;;;5030360;28;20893;-69
2022/06/07 00:21:51;;;;;;;24.60;23.33;;;19.30;70.40;;;;;;5033934;28;20566;-69
2022/06/07 00:24:19;;;;;;;24.20;22.90;;;19.30;70.50;;;;;;5033775;28;20494;-69
2022/06/07 00:26:46;;;;;;;25.20;23.90;;;19.30;70.80;;;;;;5032854;28;20503;-68
2022/06/07 00:29:14;;;;;;;25.53;24.23;;;19.30;70.80;;;;;;5030504;28;20555;-69
2022/06/07 00:31:42;;;;;;;25.30;23.90;;;19.20;70.80;;;;;;5038648;28;20835;-69
2022/06/07 00:34:09;;;;;;;26.57;24.83;;;19.30;70.60;;;;;;5038907;28;20456;-69
2022/06/07 00:36:37;;;;;;;26.60;25.10;;;19.20;71.10;;;;;;5034059;28;20567;-69
2022/06/07 00:39:06;;;;;;;27.23;25.83;;;19.10;71.50;;;;;;5027937;28;20980;-69
2022/06/07 00:41:33;;;;;;;26.07;24.50;;;19.10;71.70;;;;;;5025763;28;20472;-69
2022/06/07 00:44:29;;;;;;;25.60;24.10;;;19.00;71.80;;;;;;5029746;28;20531;-69
2022/06/07 00:47:00;;;;;;;25.20;23.90;;;19.10;71.70;;;;;;5027974;28;21028;-69
2022/06/07 00:49:29;;;;;;;24.57;23.27;;;19.00;71.90;;;;;;5035666;28;20455;-69
2022/06/07 00:51:56;;;;;;;26.07;24.57;;;19.00;71.50;;;;;;5037935;28;20480;-69
2022/06/07 00:54:27;;;;;;;24.93;23.60;;;19.10;71.60;;;;;;5028810;28;20495;-69
2022/06/07 00:56:54;;;;;;;25.10;23.70;;;19.00;71.50;;;;;;5033227;28;20483;-69
2022/06/07 00:59:21;;;;;;;25.50;24.17;;;19.00;70.90;;;;;;5036241;28;20777;-69
2022/06/07 01:01:50;;;;;;;25.00;23.70;;;19.00;71.30;;;;;;5032687;28;20575;-69
2022/06/07 01:04:17;;;;;;;24.80;23.50;;;19.00;71.00;;;;;;5036434;28;20621;-69
2022/06/07 01:12:14;;;;;;;25.30;24.00;;;19.00;71.50;;;;;;5034804;28;20455;-69
2022/06/07 01:14:41;;;;;;;25.37;23.97;;;19.00;71.60;;;;;;5030568;28;20535;-68
2022/06/07 01:17:08;;;;;;;24.93;23.63;;;19.00;71.70;;;;;;5043115;28;20558;-69
2022/06/07 01:19:35;;;;;;;25.37;23.87;;;19.10;70.80;;;;;;5035852;28;21041;-69
2022/06/07 01:22:04;;;;;;;24.93;23.33;;;19.00;71.20;;;;;;5030131;28;20560;-68
2022/06/07 01:24:30;;;;;;;25.00;23.70;;;18.90;72.10;;;;;;5034813;28;20547;-69
2022/06/07 01:26:58;;;;;;;25.10;23.50;;;18.90;71.80;;;;;;5035636;28;20562;-69
2022/06/07 01:29:25;;;;;;;25.70;24.30;;;18.90;72.10;;;;;;5032505;28;20543;-69
2022/06/07 01:31:52;;;;;;;25.70;24.00;;;18.80;72.30;;;;;;5039021;28;20582;-69
2022/06/07 01:34:19;;;;;;;24.43;23.13;;;18.80;72.90;;;;;;5035129;28;20550;-69
2022/06/07 01:36:46;;;;;;;25.23;23.83;;;18.80;73.00;;;;;;5027285;28;20487;-69
2022/06/07 01:41:59;;;;;;;25.20;23.90;;;18.80;73.70;;;;;;5037461;28;20603;-69
2022/06/07 01:44:29;;;;;;;25.30;23.90;;;18.80;74.30;;;;;;5032377;28;20590;-69
2022/06/07 01:46:58;;;;;;;24.80;23.50;;;18.80;74.60;;;;;;5033225;28;20508;-69
2022/06/07 01:49:26;;;;;;;25.10;23.80;;;18.70;73.80;;;;;;5032221;28;20559;-69
2022/06/07 01:51:54;;;;;;;25.00;23.80;;;18.60;73.30;;;;;;5040720;28;20646;-69
2022/06/07 01:54:23;;;;;;;25.90;24.57;;;18.50;74.80;;;;;;5037496;28;21045;-69
2022/06/07 01:56:50;;;;;;;25.43;23.87;;;18.40;74.90;;;;;;5035178;28;20536;-69
2022/06/07 01:59:18;;;;;;;26.37;24.80;;;18.40;73.80;;;;;;5031527;28;20464;-69
2022/06/07 02:01:46;;;;;;;24.37;23.17;;;18.30;74.30;;;;;;5034595;28;20559;-69
2022/06/07 02:04:13;;;;;;;24.47;23.17;;;18.20;75.10;;;;;;5030974;28;20459;-69
2022/06/07 02:06:41;;;;;;;25.80;24.30;;;18.30;75.00;;;;;;5034512;28;20510;-69
2022/06/07 02:09:09;;;;;;;25.80;24.50;;;18.30;75.00;;;;;;5038576;28;21075;-69
2022/06/07 02:11:38;;;;;;;25.00;23.80;;;18.20;75.10;;;;;;5039514;28;20550;-69
2022/06/07 02:14:06;;;;;;;24.97;23.67;;;18.20;75.20;;;;;;5035532;28;20535;-68
2022/06/07 02:16:33;;;;;;;24.20;23.00;;;18.20;75.90;;;;;;5029200;28;20480;-69
2022/06/07 02:19:00;;;;;;;24.70;23.50;;;18.20;75.70;;;;;;5041243;28;20467;-69
2022/06/07 02:21:28;;;;;;;24.67;23.37;;;18.10;76.20;;;;;;5030651;28;20471;-69
2022/06/07 02:23:55;;;;;;;25.87;24.57;;;18.10;76.40;;;;;;5030399;28;21035;-68
2022/06/07 02:26:25;;;;;;;24.87;23.67;;;18.10;76.80;;;;;;5027967;28;20554;-69
2022/06/07 02:28:59;;;;;;;26.00;24.60;;;18.10;76.20;;;;;;5030207;28;20547;-69
2022/06/07 02:31:29;;;;;;;25.00;23.70;;;18.00;76.40;;;;;;5036891;28;20947;-69
2022/06/07 02:33:58;;;;;;;25.03;23.70;;;18.00;76.60;;;;;;5030186;28;20461;-69
2022/06/07 02:36:27;;;;;;;25.27;23.97;;;18.00;76.00;;;;;;5029117;28;21023;-69
2022/06/07 02:38:55;;;;;;;25.53;24.07;;;17.90;76.00;;;;;;5031683;28;20457;-69
2022/06/07 02:41:23;;;;;;;24.93;23.70;;;17.90;75.60;;;;;;5034709;28;20574;-69
2022/06/07 02:43:50;;;;;;;24.63;23.33;;;18.00;75.30;;;;;;5034250;28;20588;-68
2022/06/07 02:46:19;;;;;;;24.20;23.00;;;18.00;75.10;;;;;;5041026;28;20479;-69
2022/06/07 02:48:46;;;;;;;25.50;24.10;;;17.90;74.90;;;;;;5033320;28;20452;-69
2022/06/07 02:51:13;;;;;;;25.63;24.40;;;17.90;74.70;;;;;;5030135;28;20530;-69
2022/06/07 02:53:40;;;;;;;24.20;23.00;;;17.90;74.60;;;;;;5030315;28;20453;-69
2022/06/07 02:56:07;;;;;;;25.20;23.83;;;17.90;74.20;;;;;;5028444;28;20472;-69
2022/06/07 02:58:34;;;;;;;24.73;23.47;;;17.90;74.30;;;;;;5035710;28;21078;-69
2022/06/07 03:01:00;;;;;;;24.40;23.10;;;17.90;75.00;;;;;;5031650;28;20464;-69
2022/06/07 03:03:29;;;;;;;24.00;22.80;;;17.80;75.60;;;;;;5039369;28;20483;-69
2022/06/07 03:05:57;;;;;;;25.97;24.40;;;17.80;75.90;;;;;;5028171;28;20567;-69
2022/06/07 03:08:24;;;;;;;25.33;24.10;;;17.80;76.20;;;;;;5027032;28;21015;-69
2022/06/07 03:10:51;;;;;;;25.00;23.60;;;17.80;76.40;;;;;;5029943;28;20567;-69
2022/06/07 03:13:19;;;;;;;24.87;23.57;;;17.70;76.40;;;;;;5042557;28;20488;-69
2022/06/07 03:15:47;;;;;;;25.30;23.90;;;17.70;76.60;;;;;;5048429;28;20530;-71
2022/06/07 03:18:15;;;;;;;25.80;24.30;;;17.70;76.80;;;;;;5038079;28;20464;-71
2022/06/07 03:20:46;;;;;;;26.30;24.90;;;17.80;76.50;;;;;;5033773;28;20558;-71
2022/06/07 03:23:13;;;;;;;27.90;26.37;;;17.70;77.00;;;;;;5031979;28;20563;-74
2022/06/07 03:25:40;;;;;;;27.00;25.40;;;17.70;77.60;;;;;;5038967;28;20814;-70
2022/06/07 03:28:07;;;;;;;26.43;25.03;;;17.60;78.50;;;;;;5037788;28;20547;-70
2022/06/07 03:30:35;;;;;;;27.93;26.23;;;17.60;78.60;;;;;;5046175;28;20460;-71
2022/06/07 03:33:02;;;;;;;24.67;23.37;;;17.60;78.70;;;;;;5035986;28;20547;-71
2022/06/07 03:35:29;;;;;;;25.90;24.50;;;17.50;78.90;;;;;;5036828;28;20504;-71
2022/06/07 03:37:57;;;;;;;25.43;24.07;;;17.50;78.70;;;;;;5033607;28;20551;-71
2022/06/07 03:43:08;;;;;;;24.00;22.70;;;17.50;78.30;;;;;;5031552;28;20585;-70
2022/06/07 03:45:35;;;;;;;26.57;25.07;;;17.50;77.40;;;;;;5040675;28;20479;-71
2022/06/07 03:48:02;;;;;;;25.30;23.80;;;17.60;77.00;;;;;;5042723;28;20460;-70
2022/06/07 03:50:29;;;;;;;24.60;23.10;;;17.60;76.30;;;;;;5046292;28;20459;-70
2022/06/07 03:52:57;;;;;;;26.63;25.13;;;17.70;75.20;;;;;;5041577;28;20534;-72
2022/06/07 03:55:24;;;;;;;23.80;22.50;;;17.80;74.10;;;;;;5036945;28;20563;-71
2022/06/07 03:57:51;;;;;;;29.23;27.73;;;17.80;73.10;;;;;;5031790;28;20463;-71
2022/06/07 04:00:19;;;;;;;29.23;27.73;;;17.80;72.80;;;;;;5030842;28;20551;-71
2022/06/07 04:02:46;;;;;;;26.70;25.20;;;17.70;72.70;;;;;;5032859;28;20471;-71
2022/06/07 04:05:12;;;;;;;26.47;24.97;;;17.80;73.10;;;;;;5039909;28;20907;-71
2022/06/07 04:10:25;;;;;;;25.20;23.70;;;17.90;74.40;;;;;;5039818;28;20485;-73
2022/06/07 04:12:52;;;;;;;28.43;26.83;;;17.90;74.90;;;;;;5046235;28;20462;-71
2022/06/07 04:15:21;;;;;;;25.23;23.83;;;17.90;74.50;;;;;;5037332;28;20571;-71
2022/06/07 04:17:50;;;;;;;28.33;26.67;;;17.90;74.00;;;;;;5040825;28;20470;-69
2022/06/07 04:20:17;;;;;;;25.83;24.40;;;17.90;74.00;;;;;;5035500;28;20456;-69
2022/06/07 04:22:43;;;;;;;26.23;24.73;;;17.80;73.80;;;;;;5040638;28;20480;-69
2022/06/07 04:25:11;;;;;;;27.10;25.50;;;17.90;73.90;;;;;;5043021;28;20567;-69
2022/06/07 04:27:39;;;;;;;26.10;24.70;;;17.80;74.00;;;;;;5038517;28;20542;-69
2022/06/07 04:30:07;;;;;;;28.40;26.80;;;17.80;74.00;;;;;;5033587;28;20551;-69
2022/06/07 04:32:34;;;;;;;26.70;25.20;;;17.70;73.50;;;;;;5034045;28;20803;-70
2022/06/07 04:35:01;;;;;;;27.07;25.57;;;17.80;73.20;;;;;;5029326;28;20452;-69
2022/06/07 04:37:29;;;;;;;28.10;26.50;;;17.90;73.30;;;;;;5031951;28;20549;-69
2022/06/07 04:39:56;;;;;;;31.67;30.00;;;17.90;73.10;;;;;;5029300;28;20464;-69
2022/06/07 04:42:23;;;;;;;26.20;24.80;;;17.90;73.60;;;;;;5031464;28;20567;-69
2022/06/07 04:44:51;;;;;;;26.27;24.47;;;17.90;74.00;;;;;;5037128;28;20471;-69
2022/06/07 04:47:19;;;;;;;26.33;24.83;;;17.90;74.30;;;;;;5030030;28;20838;-69
2022/06/07 04:49:46;;;;;;;28.40;26.67;;;17.90;74.50;;;;;;5035794;28;20996;-71
2022/06/07 04:52:12;;;;;;;25.20;23.90;;;17.90;74.60;;;;;;5028195;28;20460;-70
2022/06/07 04:54:39;;;;;;;25.73;24.20;;;17.90;74.70;;;;;;5043200;28;20456;-73
2022/06/07 04:57:06;;;;;;;26.03;24.57;;;17.90;74.40;;;;;;5037770;28;20489;-69
2022/06/07 04:59:33;;;;;;;28.57;27.13;;;18.00;74.70;;;;;;5044139;28;20509;-70
2022/06/07 05:02:02;;;;;;;25.27;23.87;;;18.00;74.40;;;;;;5033001;28;21075;-68
2022/06/07 05:04:29;;;;;;;28.60;26.83;;;18.00;73.70;;;;;;5030573;28;20465;-70
2022/06/07 05:06:56;;;;;;;26.10;24.60;;;18.10;73.70;;;;;;5035437;28;20485;-68
2022/06/07 05:09:25;;;;;;;25.23;23.90;;;18.20;74.10;;;;;;5026633;28;20550;-69
2022/06/07 05:11:54;;;;;;;25.80;24.37;;;18.20;74.10;;;;;;5036645;28;21044;-71
2022/06/07 05:14:21;;;;;;;24.50;23.10;;;18.10;74.40;;;;;;5040023;28;20554;-71
2022/06/07 05:16:49;;;;;;;25.27;23.67;;;18.10;74.70;;;;;;5030247;28;20559;-72
2022/06/07 05:19:18;;;;;;;25.00;23.70;;;18.10;75.00;;;;;;5030234;28;21024;-68
2022/06/07 05:21:46;;;;;;;25.47;24.07;;;18.00;75.80;;;;;;5030087;28;20452;-69
2022/06/07 05:24:13;;;;;;;25.10;23.80;;;17.90;76.20;;;;;;5033277;28;20468;-68
2022/06/07 05:26:45;;;;;;;25.03;23.63;;;17.80;76.70;;;;;;5031943;28;20555;-68
2022/06/07 05:29:18;;;;;;;25.30;23.90;;;17.70;76.90;;;;;;5031234;28;20564;-68
2022/06/07 05:31:45;;;;;;;26.60;24.90;;;17.60;77.30;;;;;;5040683;28;20455;-68
2022/06/07 05:34:13;;;;;;;25.40;24.00;;;17.70;77.20;;;;;;5035830;28;20974;-67
2022/06/07 05:36:41;;;;;;;25.23;23.80;;;17.90;77.00;;;;;;5029291;28;20583;-68
2022/06/07 05:39:17;;;;;;;24.30;22.90;;;18.00;76.60;;;;;;5028694;28;21257;-67
2022/06/07 05:41:44;;;;;;;28.43;26.93;;;18.10;75.70;;;;;;5032439;28;20539;-69
2022/06/07 05:44:11;;;;;;;23.55;22.15;;;18.30;74.80;;;;;;5026265;28;20550;-67
2022/06/07 05:46:38;;;;;;;26.33;24.93;;;18.60;73.90;;;;;;5033721;28;20221;-68
2022/06/07 05:49:05;;;;;;;25.70;24.20;;;18.60;73.60;;;;;;5036724;28;20462;-71
2022/06/07 05:51:32;;;;;;;28.73;27.13;;;18.70;73.40;;;;;;5044245;28;20546;-71
2022/06/07 05:54:03;;;;;;;26.33;24.93;;;19.00;73.40;;;;;;5033315;28;20543;-73
2022/06/07 05:56:30;;;;;;;24.53;23.03;;;19.10;71.90;;;;;;5029628;28;20490;-72
2022/06/07 05:58:57;;;;;;;28.50;27.00;;;19.20;72.50;;;;;;5038933;28;20546;-70
2022/06/07 06:01:26;;;;;;;27.93;26.30;;;19.30;72.40;;;;;;5036628;28;20544;-69
2022/06/07 06:03:55;;;;;;;25.50;23.77;;;19.50;72.00;;;;;;5036432;28;20479;-72
2022/06/07 06:06:23;;;;;;;26.10;24.50;;;19.70;71.30;;;;;;5041742;28;20571;-73
2022/06/07 06:11:36;;;;;;;27.80;26.20;;;20.10;69.70;;;;;;5031902;28;20491;-69
2022/06/07 06:14:03;;;;;;;26.70;25.10;;;20.30;69.20;;;;;;5028769;28;20457;-68
2022/06/07 06:16:32;;;;;;;25.27;23.80;;;20.50;68.60;;;;;;5029153;28;20555;-71
2022/06/07 06:19:00;;;;;;;26.60;25.00;;;20.70;68.20;;;;;;5037808;28;20534;-73
2022/06/07 06:21:32;;;;;;;26.83;25.23;;;20.80;67.70;;;;;;5039837;28;20524;-70
2022/06/07 06:24:00;;;;;;;25.77;24.17;;;21.00;67.40;;;;;;5028500;28;20571;-73
2022/06/07 06:26:28;;;;;;;28.13;26.37;;;21.00;66.90;;;;;;5037582;28;20562;-70
2022/06/07 06:28:56;;;;;;;30.10;28.40;;;21.10;67.10;;;;;;5031683;28;20548;-69
2022/06/07 06:31:27;;;;;;;28.97;27.37;;;21.10;67.40;;;;;;5035649;28;20500;-74
2022/06/07 06:33:57;;;;;;;26.87;24.90;;;21.30;66.20;;;;;;5029948;28;20455;-69
2022/06/07 06:36:26;;;;;;;31.60;29.63;;;21.40;65.30;;;;;;5028985;28;20480;-71
2022/06/07 06:38:53;;;;;;;27.33;25.83;;;21.30;65.30;;;;;;5038782;28;20514;-68
2022/06/07 06:41:26;;;;;;;25.93;24.53;;;21.40;65.60;;;;;;5036626;28;20559;-67
2022/06/07 06:43:54;;;;;;;27.50;26.00;;;21.40;64.10;;;;;;5039793;28;20473;-67
2022/06/07 06:46:23;;;;;;;26.30;24.90;;;21.50;64.40;;;;;;5043728;28;20572;-71
2022/06/07 06:48:51;;;;;;;26.90;25.30;;;21.70;64.20;;;;;;5037220;28;20469;-71
2022/06/07 06:51:20;;;;;;;26.90;25.23;;;21.80;63.50;;;;;;5036981;28;20617;-69
2022/06/07 06:53:47;;;;;;;25.33;23.80;;;21.80;63.30;;;;;;5032393;28;20532;-70
2022/06/07 06:56:17;;;;;;;25.27;23.87;;;21.60;62.40;;;;;;5044120;28;20616;-67
2022/06/07 06:58:45;;;;;;;25.93;24.33;;;21.40;63.20;;;;;;5043437;28;21029;-69
2022/06/07 07:01:15;;;;;;;26.13;24.73;;;21.20;63.60;;;;;;5043843;28;20460;-70
2022/06/07 07:03:44;;;;;;;25.60;24.10;;;21.40;63.80;;;;;;5041779;28;21015;-67
2022/06/07 07:06:13;;;;;;;25.77;24.27;;;21.50;63.90;;;;;;5042458;28;20538;-67
2022/06/07 07:08:42;;;;;;;26.13;24.73;;;21.60;64.00;;;;;;5034383;28;20578;-68
2022/06/07 07:11:11;;;;;;;25.30;23.80;;;21.90;63.40;;;;;;5032631;28;20521;-70
2022/06/07 07:13:39;;;;;;;25.27;23.60;;;22.00;62.70;;;;;;5032170;28;20461;-68
2022/06/07 07:16:11;;;;;;;25.13;23.73;;;22.20;61.90;;;;;;5039013;28;20564;-68
2022/06/07 07:18:38;;;;;;;25.80;24.30;;;22.40;62.20;;;;;;5033862;28;20468;-68
2022/06/07 07:21:09;;;;;;;24.77;23.37;;;22.50;60.40;;;;;;5033031;28;20473;-68
2022/06/07 07:23:36;;;;;;;26.00;24.50;;;22.50;61.30;;;;;;5050271;28;20481;-68
2022/06/07 07:26:06;;;;;;;25.27;23.97;;;22.60;60.40;;;;;;5045748;28;20559;-69
2022/06/07 07:28:33;;;;;;;25.33;23.97;;;22.50;60.80;;;;;;5031960;28;20470;-71
2022/06/07 07:31:02;;;;;;;25.33;23.90;;;22.60;59.70;;;;;;5041886;28;20553;-69
2022/06/07 07:33:31;;;;;;;28.07;26.67;;;22.50;59.70;;;;;;5042873;28;20492;-70
2022/06/07 07:36:00;;;;;;;25.43;24.03;;;22.50;60.40;;;;;;5041780;28;20540;-69
2022/06/07 07:38:29;;;;;;;25.10;23.80;;;22.80;60.50;;;;;;5032382;28;20554;-72
2022/06/07 07:40:56;;;;;;;28.03;26.33;;;23.10;59.60;;;;;;5036001;28;20961;-71
2022/06/07 07:43:23;;;;;;;26.37;24.87;;;23.50;59.50;;;;;;5032820;28;20564;-71
2022/06/07 07:45:53;;;;;;;27.77;26.13;;;23.90;58.20;;;;;;5034657;28;20583;-67
2022/06/07 07:48:21;;;;;;;26.87;25.43;;;24.20;56.10;;;;;;5031641;28;20467;-71
2022/06/07 07:50:48;;;;;;;25.67;24.07;;;24.30;53.90;;;;;;5042520;28;20454;-73
2022/06/07 07:53:17;;;;;;;25.57;24.17;;;24.00;54.70;;;;;;5031798;28;20552;-70
2022/06/07 07:55:47;;;;;;;26.20;24.50;;;24.00;55.10;;;;;;5036620;28;20860;-69
2022/06/07 07:58:16;;;;;;;24.53;23.20;;;23.50;55.80;;;;;;5033148;28;20496;-72
2022/06/07 08:00:44;;;;;;;25.70;24.10;;;23.20;57.20;;;;;;5033433;28;20459;-68
2022/06/07 08:03:12;;;;;;;27.73;25.90;;;23.10;56.30;;;;;;5037916;28;20477;-69
2022/06/07 08:05:39;;;;;;;26.37;24.87;;;23.10;56.70;;;;;;5031361;28;20487;-72
2022/06/07 08:08:07;;;;;;;25.13;23.80;;;23.20;56.40;;;;;;5037298;28;20466;-72
2022/06/07 08:10:34;;;;;;;25.13;23.83;;;23.50;55.20;;;;;;5035964;28;20471;-72
2022/06/07 08:13:03;;;;;;;27.80;26.30;;;23.70;54.40;;;;;;5033106;28;21190;-75
2022/06/07 08:15:33;;;;;;;24.73;23.33;;;24.00;54.00;;;;;;5046677;28;21442;-73
2022/06/07 08:18:02;;;;;;;25.07;23.57;;;24.00;53.30;;;;;;5033379;28;20460;-73
2022/06/07 08:20:30;;;;;;;26.13;24.73;;;24.00;53.30;;;;;;5036286;28;20453;-75
2022/06/07 08:22:58;;;;;;;26.67;25.20;;;23.80;53.70;;;;;;5032947;28;20568;-68
2022/06/07 08:25:25;;;;;;;25.30;23.90;;;23.80;53.50;;;;;;5045624;28;20511;-68
2022/06/07 08:27:52;;;;;;;25.40;24.00;;;24.00;53.70;;;;;;5034079;28;20494;-68
2022/06/07 08:30:21;;;;;;;24.40;23.10;;;24.30;53.40;;;;;;5043216;28;21186;-71
2022/06/07 08:32:48;;;;;;;25.03;23.73;;;24.60;54.10;;;;;;5034509;28;20462;-71
2022/06/07 08:38:01;;;;;;;25.50;24.20;;;24.10;51.30;;;;;;5030728;28;20463;-67
2022/06/07 08:40:33;;;;;;;25.77;24.37;;;23.50;53.20;;;;;;5031082;28;21014;-67
2022/06/07 08:43:02;;;;;;;27.07;25.50;;;23.30;53.60;;;;;;5031959;28;20556;-67
2022/06/07 08:45:35;;;;;;;25.50;24.20;;;23.50;53.50;;;;;;5032691;28;20581;-67
2022/06/07 08:48:05;;;;;;;25.53;24.13;;;23.80;53.80;;;;;;5033887;28;20478;-70
2022/06/07 08:50:35;;;;;;;26.23;24.83;;;23.90;53.70;;;;;;5040762;28;20917;-68
2022/06/07 08:53:11;;;;;;;28.10;26.50;;;23.70;54.90;;;;;;5034690;28;20543;-67
2022/06/07 08:55:48;;;;;;;27.60;25.90;;;23.60;55.70;;;;;;5038031;28;20483;-67
2022/06/07 08:58:19;;;;;;;24.97;23.60;;;23.70;55.10;;;;;;5043533;28;20472;-67
2022/06/07 09:00:50;;;;;;;26.60;25.10;;;24.00;54.50;;;;;;5033025;28;20560;-68
2022/06/07 09:03:36;;;;;;;26.60;25.10;;;24.20;53.80;;;;;;5032149;28;21029;-68
2022/06/07 09:06:05;;;;;;;26.17;24.67;;;24.40;52.70;;;;;;5033779;28;20562;-73
2022/06/07 09:08:36;;;;;;;25.93;24.40;;;24.40;52.10;;;;;;5029889;28;20480;-73
2022/06/07 09:13:51;;;;;;;25.10;23.80;;;24.80;51.10;;;;;;5034087;28;20444;-67
2022/06/07 09:16:20;;;;;;;25.80;24.47;;;24.20;51.40;;;;;;5036074;28;20479;-67
2022/06/07 09:18:50;;;;;;;25.60;24.30;;;24.30;51.60;;;;;;5029169;28;20475;-72
2022/06/07 09:21:27;;;;;;;26.40;25.00;;;24.50;51.30;;;;;;5029710;28;20459;-70
2022/06/07 09:23:56;;;;;;;26.70;25.20;;;24.60;52.40;;;;;;5033291;28;20516;-68
2022/06/07 09:26:31;;;;;;;28.17;26.57;;;24.80;52.00;;;;;;5047701;28;20525;-68
2022/06/07 09:29:09;;;;;;;27.80;26.20;;;24.80;50.00;;;;;;5039550;28;21239;-69
2022/06/07 09:31:41;;;;;;;25.73;24.33;;;24.30;51.00;;;;;;5036595;28;20456;-69
2022/06/07 09:34:25;;;;;;;24.90;23.50;;;24.20;52.30;;;;;;5036157;28;20525;-70
2022/06/07 09:36:57;;;;;;;26.63;25.03;;;24.30;52.10;;;;;;5044143;28;20527;-72
2022/06/07 09:39:29;;;;;;;26.10;24.70;;;24.20;51.70;;;;;;5038348;28;20490;-70
2022/06/07 09:42:02;;;;;;;25.80;24.40;;;24.10;51.60;;;;;;5039548;28;20558;-70
2022/06/07 09:44:33;;;;;;;25.90;24.40;;;24.20;51.70;;;;;;5033560;28;20589;-70
2022/06/07 09:47:06;;;;;;;29.33;27.60;;;24.50;52.20;;;;;;5030016;28;20499;-70
2022/06/07 09:49:38;;;;;;;26.43;25.03;;;24.90;50.20;;;;;;5031792;28;20521;-68
2022/06/07 09:52:21;;;;;;;28.20;26.70;;;25.30;49.60;;;;;;5031725;28;20475;-68
2022/06/07 09:54:50;;;;;;;27.50;26.00;;;25.60;49.30;;;;;;5026430;28;22165;-68
2022/06/07 09:57:32;;;;;;;26.13;24.83;;;25.80;48.20;;;;;;5029564;28;21083;-70
2022/06/07 10:00:20;;;;;;;27.20;25.57;;;25.80;47.80;;;;;;5029138;28;20562;-70
2022/06/07 10:03:34;;;;;;;26.00;24.70;;;25.50;47.20;;;;;;5029487;28;20884;-71
2022/06/07 10:06:23;;;;;;;26.90;25.40;;;25.20;46.80;;;;;;5029013;28;20468;-70
2022/06/07 10:09:09;;;;;;;26.00;24.60;;;24.80;48.50;;;;;;5034625;28;20510;-70
2022/06/07 10:11:44;;;;;;;26.33;24.87;;;24.70;48.70;;;;;;5048478;28;20553;-71
2022/06/07 10:14:31;;;;;;;26.10;24.40;;;24.50;49.50;;;;;;5030462;28;20910;-70
2022/06/07 10:17:15;;;;;;;26.30;24.90;;;24.80;49.80;;;;;;5039571;28;20484;-71
2022/06/07 10:19:50;;;;;;;25.30;24.00;;;25.20;49.10;;;;;;5038206;28;20543;-72
2022/06/07 10:22:29;;;;;;;24.83;23.53;;;25.50;48.00;;;;;;5034512;28;20455;-71
2022/06/07 10:25:05;;;;;;;25.20;23.80;;;25.80;46.70;;;;;;5026802;28;20541;-67
2022/06/07 10:27:38;;;;;;;25.90;24.40;;;25.80;45.60;;;;;;5043884;28;20559;-68
2022/06/07 10:30:27;;;;;;;27.00;25.50;;;25.80;47.00;;;;;;5042343;28;20538;-67
2022/06/07 10:33:19;;;;;;;27.43;25.63;;;25.80;46.80;;;;;;5040300;28;20462;-67
2022/06/07 10:35:52;;;;;;;27.50;25.90;;;25.70;47.00;;;;;;5024762;28;20555;-68
2022/06/07 10:38:35;;;;;;;28.77;27.17;;;25.10;48.40;;;;;;5048349;28;20534;-70
2022/06/07 10:41:11;;;;;;;27.23;25.63;;;24.90;48.70;;;;;;5038851;28;20530;-68
2022/06/07 10:44:00;;;;;;;29.53;27.90;;;24.70;48.80;;;;;;5029789;28;20582;-72
2022/06/07 10:46:29;;;;;;;27.10;25.60;;;24.40;48.90;;;;;;5034344;28;20483;-68
2022/06/07 10:49:11;;;;;;;26.60;25.10;;;24.30;50.00;;;;;;5035890;28;20554;-69
2022/06/07 10:54:39;;;;;;;25.73;24.37;;;24.40;50.40;;;;;;5027518;28;20458;-73
2022/06/07 10:57:14;;;;;;;25.63;24.17;;;24.60;50.30;;;;;;5038347;28;20570;-68
2022/06/07 10:59:43;;;;;;;27.00;25.50;;;24.70;50.40;;;;;;5029468;28;20926;-68
2022/06/07 11:02:21;;;;;;;25.57;24.17;;;24.70;50.20;;;;;;5040474;28;20908;-68
2022/06/07 11:10:35;;;;;;;25.90;24.50;;;24.20;51.20;;;;;;5031972;28;20461;-67
2022/06/07 11:13:16;;;;;;;25.87;24.47;;;24.40;51.00;;;;;;5027141;28;20550;-67
2022/06/07 11:15:49;;;;;;;27.30;25.90;;;24.50;50.90;;;;;;5031976;28;20477;-68
2022/06/07 11:18:20;;;;;;;26.80;25.40;;;24.80;50.70;;;;;;5043467;28;20537;-68
2022/06/07 11:21:09;;;;;;;26.20;24.70;;;25.10;49.80;;;;;;5040431;28;20487;-71
2022/06/07 11:23:46;;;;;;;26.07;24.67;;;25.30;48.80;;;;;;5032436;28;20538;-70
2022/06/07 11:26:15;;;;;;;26.43;24.93;;;25.30;49.20;;;;;;5029041;28;20476;-70
2022/06/07 11:28:47;;;;;;;27.93;26.33;;;25.20;48.80;;;;;;5033737;28;20533;-68
2022/06/07 11:31:29;;;;;;;27.60;25.80;;;25.00;49.60;;;;;;5034092;28;20464;-68
2022/06/07 11:34:13;;;;;;;26.67;25.20;;;24.70;50.80;;;;;;5030452;28;20452;-73
2022/06/07 11:36:41;;;;;;;27.20;25.60;;;24.70;52.00;;;;;;5038929;28;20491;-68
2022/06/07 11:39:51;;;;;;;28.40;26.80;;;25.00;51.60;;;;;;5032063;28;20810;-70
2022/06/07 11:42:33;;;;;;;26.00;24.60;;;25.50;51.50;;;;;;5034721;28;20458;-70
2022/06/07 11:45:25;;;;;;;28.93;27.43;;;25.70;49.80;;;;;;5030522;28;20518;-70
2022/06/07 11:48:23;;;;;;;28.93;27.23;;;25.70;49.80;;;;;;5035005;28;20577;-70
2022/06/07 11:51:08;;;;;;;31.30;29.60;;;25.50;50.50;;;;;;5044516;28;20456;-69
2022/06/07 11:53:38;;;;;;;26.10;24.60;;;25.50;50.70;;;;;;5034344;28;20542;-70
2022/06/07 11:56:33;;;;;;;26.87;25.37;;;25.50;51.00;;;;;;5032305;28;20563;-70
2022/06/07 11:59:04;;;;;;;27.67;26.17;;;25.60;51.20;;;;;;5031493;28;20460;-67
2022/06/07 12:01:44;;;;;;;27.37;25.87;;;25.70;51.00;;;;;;5042806;28;20573;-68
2022/06/07 12:04:34;;;;;;;27.20;25.50;;;25.70;51.80;;;;;;5037669;28;21123;-68
2022/06/07 12:07:08;;;;;;;27.17;25.67;;;25.60;51.80;;;;;;5042849;28;20471;-69
2022/06/07 12:09:36;;;;;;;28.63;26.90;;;25.70;51.70;;;;;;5046157;28;20547;-69
2022/06/07 12:12:20;;;;;;;27.03;25.43;;;25.80;52.30;;;;;;5046222;28;20464;-69
2022/06/07 12:14:50;;;;;;;28.60;26.93;;;25.90;51.60;;;;;;5040337;28;20461;-70
2022/06/07 12:17:25;;;;;;;30.40;28.50;;;26.10;51.40;;;;;;5030734;28;20492;-70
2022/06/07 12:19:53;;;;;;;26.40;24.97;;;26.20;51.10;;;;;;5035382;28;21007;-69
2022/06/07 12:22:25;;;;;;;27.97;26.37;;;26.20;51.50;;;;;;5039809;28;21039;-71
2022/06/07 12:24:57;;;;;;;29.70;27.90;;;26.50;51.20;;;;;;5035370;28;20481;-71
2022/06/07 12:27:28;;;;;;;32.13;30.17;;;26.90;51.00;;;;;;5047159;28;20483;-70
2022/06/07 12:30:01;;;;;;;30.73;28.60;;;27.10;50.60;;;;;;5044600;28;21078;-69
2022/06/07 12:32:32;;;;;;;30.73;28.93;;;27.40;50.00;;;;;;5040609;28;20460;-69
2022/06/07 12:35:16;;;;;;;27.77;26.10;;;27.60;49.70;;;;;;5044496;28;21271;-70
2022/06/07 12:37:47;;;;;;;38.10;35.03;;;27.80;49.40;;;;;;5037954;28;20459;-69
2022/06/07 12:40:28;;;;;;;27.77;26.10;;;27.50;48.80;;;;;;5040692;28;20456;-69
2022/06/07 12:42:57;;;;;;;34.30;31.70;;;27.70;48.10;;;;;;5029885;28;20464;-72
2022/06/07 12:45:27;;;;;;;30.87;28.80;;;27.60;48.60;;;;;;5038270;28;20486;-73
2022/06/07 12:47:59;;;;;;;34.93;32.30;;;27.60;48.60;;;;;;5031639;28;20547;-73
2022/06/07 12:50:32;;;;;;;30.50;28.40;;;27.50;48.30;;;;;;5037062;28;20468;-72
2022/06/07 12:53:00;;;;;;;28.57;26.73;;;27.50;47.30;;;;;;5031113;28;20539;-75
2022/06/07 12:55:31;;;;;;;29.50;27.90;;;27.40;47.70;;;;;;5033655;28;20476;-75
2022/06/07 12:58:01;;;;;;;28.63;26.93;;;27.40;48.30;;;;;;5033358;28;20491;-75
2022/06/07 13:00:31;;;;;;;29.83;27.83;;;27.40;48.20;;;;;;5038589;28;20463;-75
2022/06/07 13:03:01;;;;;;;28.73;27.03;;;27.50;47.70;;;;;;5035641;28;20501;-73
2022/06/07 13:05:31;;;;;;;27.13;25.60;;;27.60;46.90;;;;;;5036532;28;20486;-73
2022/06/07 13:08:01;;;;;;;26.13;24.53;;;26.90;48.10;;;;;;5031944;28;20542;-72
2022/06/07 13:10:30;;;;;;;25.60;24.10;;;26.40;48.70;;;;;;5039233;28;20465;-72
2022/06/07 13:13:01;;;;;;;26.57;25.00;;;25.80;49.90;;;;;;5035689;28;20510;-73
2022/06/07 13:15:31;;;;;;;27.87;26.27;;;25.30;51.00;;;;;;5040231;28;20522;-73
2022/06/07 13:18:04;;;;;;;26.83;25.27;;;25.20;51.70;;;;;;5030815;28;20456;-73